Terminal Aerodrome Forecast
Issued by NWS

Home | Current Version | Previous Version | Text Only | Print | Product List | Glossary On
Versions: 1 2 3 4 5 6 7 8 9 10 11 12 13 14
000
FTUS42 TJSJ 012300 RRA
TAFJPS
TAF
TJPS 012340Z 0200/0224 06007KT P6SM FEW025 SCT060
     FM021500 13012KT P6SM VCSH FEW030 BKN060
     FM022300 09010KT P6SM FEW025 SCT060
      AMD NOT SKED TIL 020300=

USA.gov is the U.S. government's official web portal to all federal, state and local government web resources and services.